Time;durP1;ratioP1;P1;durP2;ratioP2;P2;SDS_P1;SDS_P2;PMS_P1;PMS_P2;Temp;Humidity;BMP_temperature;BMP_pressure;BME280_temperature;BME280_humidity;BME280_pressure;Samples;Min_cycle;Max_cycle;Signal;HPM_P1;HPM_P2
2023/05/30 00:02:17;;;;;;;9.35;8.40;;;23.40;80.10;;;;;;6000596;29;94202;-68
2023/05/30 00:05:21;;;;;;;7.63;6.93;;;23.40;80.10;;;;;;6001701;29;94117;-68
2023/05/30 00:08:23;;;;;;;8.10;7.30;;;23.40;80.10;;;;;;6022381;29;94138;-68
2023/05/30 00:11:28;;;;;;;8.25;7.43;;;23.40;80.10;;;;;;6007056;29;94044;-68
2023/05/30 00:14:30;;;;;;;9.48;8.57;;;23.40;80.00;;;;;;6010082;29;94172;-68
2023/05/30 00:17:35;;;;;;;7.72;7.00;;;23.40;80.00;;;;;;6015733;29;93333;-68
2023/05/30 00:20:39;;;;;;;8.20;7.40;;;23.40;80.00;;;;;;6012267;29;94050;-68
2023/05/30 00:23:44;;;;;;;8.90;8.00;;;23.40;80.00;;;;;;6028503;29;94211;-68
2023/05/30 00:26:46;;;;;;;8.98;8.10;;;23.40;79.90;;;;;;6000501;29;95535;-68
2023/05/30 00:29:48;;;;;;;10.07;9.07;;;23.40;79.90;;;;;;6011222;29;94341;-66
2023/05/30 00:32:50;;;;;;;8.77;7.90;;;23.40;80.00;;;;;;6007463;29;94262;-66
2023/05/30 00:35:54;;;;;;;9.25;8.40;;;23.40;80.00;;;;;;5997947;29;94272;-66
2023/05/30 00:38:56;;;;;;;8.77;7.97;;;23.40;79.90;;;;;;6007455;29;94150;-68
2023/05/30 00:41:58;;;;;;;9.40;8.48;;;23.40;79.80;;;;;;6005460;29;93944;-68
2023/05/30 00:45:00;;;;;;;8.77;7.97;;;23.40;79.90;;;;;;6009781;29;94106;-68
2023/05/30 00:48:02;;;;;;;7.35;6.65;;;23.40;79.90;;;;;;6010363;29;93786;-68
2023/05/30 00:51:07;;;;;;;7.93;7.22;;;23.40;80.00;;;;;;6004555;29;94169;-68
2023/05/30 00:54:09;;;;;;;7.95;7.25;;;23.40;80.00;;;;;;6007244;29;94467;-68
2023/05/30 00:57:11;;;;;;;8.73;7.93;;;23.40;80.00;;;;;;6021357;29;95293;-68
2023/05/30 01:00:15;;;;;;;8.40;7.60;;;23.40;79.90;;;;;;6008782;29;94066;-68
2023/05/30 01:03:22;;;;;;;8.23;7.45;;;23.40;79.80;;;;;;6003312;29;94088;-68
2023/05/30 01:06:27;;;;;;;8.35;7.55;;;23.40;79.80;;;;;;6016019;29;94116;-68
2023/05/30 01:09:29;;;;;;;8.27;7.40;;;23.40;79.80;;;;;;6011079;29;94055;-68
2023/05/30 01:12:39;;;;;;;8.50;7.70;;;23.40;79.70;;;;;;6013073;29;94385;-68
2023/05/30 01:15:44;;;;;;;7.60;6.90;;;23.40;79.60;;;;;;6004806;29;94209;-68
2023/05/30 01:18:55;;;;;;;8.63;7.82;;;23.40;79.60;;;;;;6011959;29;93566;-68
2023/05/30 01:22:16;;;;;;;9.10;8.27;;;23.40;79.60;;;;;;6010456;29;93118;-68
2023/05/30 01:25:31;;;;;;;8.48;7.43;;;23.40;79.60;;;;;;6001921;29;94471;-68
2023/05/30 01:28:37;;;;;;;8.75;7.95;;;23.40;79.60;;;;;;5997159;29;95082;-68
2023/05/30 01:31:40;;;;;;;8.63;7.82;;;23.40;79.60;;;;;;5998953;29;93424;-68
2023/05/30 01:34:42;;;;;;;9.10;8.20;;;23.40;79.50;;;;;;6009794;29;94166;-69
2023/05/30 01:37:44;;;;;;;8.93;8.13;;;23.40;79.50;;;;;;6006051;29;94108;-68
2023/05/30 01:40:51;;;;;;;7.65;6.95;;;23.40;79.50;;;;;;6030686;29;94360;-68
2023/05/30 01:44:02;;;;;;;8.52;7.72;;;23.30;79.60;;;;;;6021347;29;94542;-68
2023/05/30 01:47:18;;;;;;;8.45;7.65;;;23.40;79.60;;;;;;6004197;29;94090;-68
2023/05/30 01:50:24;;;;;;;9.73;8.73;;;23.30;79.60;;;;;;6026247;29;93387;-68
2023/05/30 01:53:30;;;;;;;8.20;7.40;;;23.40;79.60;;;;;;5992433;29;94080;-68
2023/05/30 01:56:35;;;;;;;8.27;7.53;;;23.40;79.60;;;;;;6005625;29;95846;-68
2023/05/30 01:59:40;;;;;;;8.38;7.57;;;23.40;79.50;;;;;;5997738;29;97564;-68
2023/05/30 02:02:43;;;;;;;8.13;7.07;;;23.40;79.50;;;;;;6002455;29;94442;-68
2023/05/30 02:05:45;;;;;;;8.98;8.18;;;23.40;79.60;;;;;;6019667;29;94241;-68
2023/05/30 02:08:47;;;;;;;9.30;8.40;;;23.40;79.50;;;;;;6009683;29;94143;-68
2023/05/30 02:11:49;;;;;;;8.40;7.60;;;23.40;79.40;;;;;;6008568;29;94124;-69
2023/05/30 02:14:54;;;;;;;8.80;8.00;;;23.40;79.40;;;;;;6001381;29;94250;-68
2023/05/30 02:17:59;;;;;;;9.60;8.45;;;23.40;79.40;;;;;;6006216;29;94200;-68
2023/05/30 02:21:01;;;;;;;8.30;7.50;;;23.40;79.40;;;;;;5998273;29;92511;-69
2023/05/30 02:24:03;;;;;;;8.65;7.85;;;23.30;79.40;;;;;;6000691;29;93040;-69
2023/05/30 02:27:06;;;;;;;9.00;8.10;;;23.40;79.40;;;;;;6012907;29;93322;-69
2023/05/30 02:30:11;;;;;;;9.05;8.25;;;23.30;79.30;;;;;;6009166;29;95442;-68
2023/05/30 02:33:12;;;;;;;8.15;7.45;;;23.40;79.40;;;;;;6007645;29;94154;-68
2023/05/30 02:36:14;;;;;;;8.20;7.35;;;23.30;79.40;;;;;;6009934;29;94052;-69
2023/05/30 02:39:17;;;;;;;8.82;7.93;;;23.30;79.40;;;;;;5998732;29;94094;-68
2023/05/30 02:42:19;;;;;;;7.95;7.22;;;23.40;79.50;;;;;;6008776;29;94147;-69
2023/05/30 02:45:22;;;;;;;6.93;6.22;;;23.40;79.50;;;;;;6007279;29;94668;-68
2023/05/30 02:48:24;;;;;;;7.85;7.15;;;23.30;79.40;;;;;;6010633;29;94151;-68
2023/05/30 02:51:26;;;;;;;8.48;7.47;;;23.40;79.50;;;;;;6000664;29;93686;-68
2023/05/30 02:54:28;;;;;;;8.98;8.02;;;23.30;79.30;;;;;;6013532;29;94175;-68
2023/05/30 02:57:30;;;;;;;8.35;7.55;;;23.30;79.80;;;;;;6013146;29;94283;-69
2023/05/30 03:00:33;;;;;;;8.75;7.85;;;23.30;79.30;;;;;;6009873;29;95042;-68
2023/05/30 03:03:36;;;;;;;7.82;7.13;;;23.40;79.40;;;;;;6013884;29;94251;-68
2023/05/30 03:06:38;;;;;;;8.02;7.30;;;23.30;79.30;;;;;;6012987;29;94307;-69
2023/05/30 03:09:41;;;;;;;10.00;9.00;;;23.30;79.30;;;;;;6016048;29;93028;-68
2023/05/30 03:12:43;;;;;;;7.93;7.13;;;23.30;79.30;;;;;;6008676;29;94063;-68
2023/05/30 03:15:47;;;;;;;8.38;7.57;;;23.30;79.30;;;;;;5995319;29;94115;-68
2023/05/30 03:18:49;;;;;;;7.90;7.20;;;23.30;79.30;;;;;;6004625;29;94209;-69
2023/05/30 03:21:52;;;;;;;8.13;7.32;;;23.30;79.30;;;;;;6012995;29;93347;-68
2023/05/30 03:24:54;;;;;;;7.63;6.93;;;23.30;79.20;;;;;;6013317;29;94089;-68
2023/05/30 03:27:56;;;;;;;7.97;7.18;;;23.30;79.30;;;;;;6012758;29;93070;-68
2023/05/30 03:31:00;;;;;;;6.60;6.00;;;23.30;79.30;;;;;;6010899;29;95451;-68
2023/05/30 03:34:03;;;;;;;7.55;6.85;;;23.30;79.40;;;;;;6012704;29;94056;-68
2023/05/30 03:37:06;;;;;;;8.13;7.32;;;23.30;79.40;;;;;;6013562;29;96607;-68
2023/05/30 03:40:10;;;;;;;8.20;7.32;;;23.30;79.40;;;;;;6013430;29;94192;-68
2023/05/30 03:43:12;;;;;;;7.80;7.10;;;23.30;79.40;;;;;;6033281;29;94167;-68
2023/05/30 03:46:16;;;;;;;7.68;6.88;;;23.30;79.40;;;;;;6000686;29;94609;-68
2023/05/30 03:49:17;;;;;;;7.47;6.45;;;23.30;79.40;;;;;;5995126;29;94140;-68
2023/05/30 03:52:19;;;;;;;7.40;6.70;;;23.30;79.30;;;;;;6005771;29;93794;-68
2023/05/30 03:55:21;;;;;;;7.30;6.60;;;23.30;79.30;;;;;;6012974;29;94079;-68
2023/05/30 03:58:23;;;;;;;7.32;6.63;;;23.30;79.40;;;;;;6005719;29;94153;-68
2023/05/30 04:01:27;;;;;;;7.07;6.47;;;23.30;79.40;;;;;;6021031;29;95127;-67
2023/05/30 04:04:29;;;;;;;8.13;7.07;;;23.30;79.30;;;;;;6017053;29;94255;-68
2023/05/30 04:07:35;;;;;;;7.00;6.40;;;23.30;79.40;;;;;;6001507;29;94210;-68
2023/05/30 04:10:37;;;;;;;7.18;6.50;;;23.30;79.30;;;;;;6019847;29;94332;-68
2023/05/30 04:13:39;;;;;;;6.85;6.15;;;23.30;79.40;;;;;;6004025;29;94453;-68
2023/05/30 04:16:42;;;;;;;7.40;6.70;;;23.30;79.40;;;;;;6004613;29;94134;-68
2023/05/30 04:19:44;;;;;;;7.10;6.40;;;23.30;79.40;;;;;;6005638;29;94593;-68
2023/05/30 04:22:46;;;;;;;7.22;6.53;;;23.30;79.40;;;;;;6001395;29;93423;-68
2023/05/30 04:25:48;;;;;;;7.18;6.47;;;23.30;79.50;;;;;;5992812;29;94038;-68
2023/05/30 04:28:54;;;;;;;6.57;5.97;;;23.30;79.50;;;;;;6023728;29;94502;-68
2023/05/30 04:31:57;;;;;;;6.57;5.90;;;23.30;79.50;;;;;;6012477;29;95019;-68
2023/05/30 04:35:00;;;;;;;7.00;6.30;;;23.30;79.60;;;;;;6002073;29;94114;-68
2023/05/30 04:38:02;;;;;;;6.68;6.07;;;23.30;79.50;;;;;;5997939;29;94212;-68
2023/05/30 04:41:05;;;;;;;6.55;5.95;;;23.30;79.50;;;;;;5992895;29;93117;-68
2023/05/30 04:44:07;;;;;;;6.65;6.05;;;23.30;79.60;;;;;;6011149;29;94133;-68
2023/05/30 04:47:11;;;;;;;6.60;6.00;;;23.30;79.60;;;;;;6010533;29;94129;-68
2023/05/30 04:50:15;;;;;;;7.35;6.65;;;23.30;79.50;;;;;;5994527;29;94091;-68
2023/05/30 04:53:17;;;;;;;6.50;5.90;;;23.30;79.50;;;;;;6003698;29;93654;-68
2023/05/30 04:56:19;;;;;;;6.53;5.93;;;23.30;79.40;;;;;;6003137;29;94188;-68
2023/05/30 04:59:21;;;;;;;6.47;5.82;;;23.30;79.40;;;;;;6024093;29;94210;-68
2023/05/30 05:02:28;;;;;;;6.43;5.82;;;23.30;79.40;;;;;;6023379;29;95133;-68
2023/05/30 05:05:30;;;;;;;6.13;5.53;;;23.30;79.40;;;;;;6001163;29;94158;-68
2023/05/30 05:08:33;;;;;;;7.22;6.00;;;23.30;79.40;;;;;;6013657;29;94160;-68
2023/05/30 05:11:35;;;;;;;6.90;5.40;;;23.30;79.50;;;;;;6002501;29;94059;-68
2023/05/30 05:14:37;;;;;;;5.90;5.30;;;23.30;79.40;;;;;;6000302;29;94819;-68
2023/05/30 05:17:40;;;;;;;6.97;6.00;;;23.30;79.50;;;;;;6009577;29;95705;-68
2023/05/30 05:20:42;;;;;;;6.47;5.88;;;23.30;79.60;;;;;;6001048;29;94267;-68
2023/05/30 05:23:44;;;;;;;6.38;5.72;;;23.30;79.60;;;;;;6010956;29;93359;-67
2023/05/30 05:26:46;;;;;;;6.15;5.60;;;23.30;79.60;;;;;;6011780;29;94104;-68
2023/05/30 05:29:48;;;;;;;5.30;4.80;;;23.30;79.60;;;;;;6032285;29;94284;-67
2023/05/30 05:32:52;;;;;;;6.20;5.60;;;23.30;79.50;;;;;;6015141;29;94086;-68
2023/05/30 05:35:54;;;;;;;5.72;5.22;;;23.30;79.40;;;;;;6010030;29;94115;-68
2023/05/30 05:38:56;;;;;;;6.25;5.28;;;23.30;79.40;;;;;;6006065;29;94160;-68
2023/05/30 05:41:58;;;;;;;6.38;5.72;;;23.30;79.40;;;;;;6004826;29;94116;-68
2023/05/30 05:45:00;;;;;;;7.18;6.00;;;23.30;79.40;;;;;;6005093;29;94506;-68
2023/05/30 05:48:04;;;;;;;6.10;5.50;;;23.30;79.40;;;;;;5998758;29;94401;-67
2023/05/30 05:51:06;;;;;;;5.88;5.28;;;23.30;79.40;;;;;;6000468;29;94078;-68
2023/05/30 05:54:08;;;;;;;6.00;5.40;;;23.30;79.40;;;;;;6011438;29;93715;-68
2023/05/30 05:57:10;;;;;;;5.80;5.30;;;23.30;79.40;;;;;;6011945;29;94127;-68
2023/05/30 06:00:13;;;;;;;5.55;5.05;;;23.30;79.40;;;;;;6023491;29;94125;-67
2023/05/30 06:03:17;;;;;;;6.65;5.10;;;23.30;79.40;;;;;;6004016;29;95272;-68
2023/05/30 06:06:19;;;;;;;5.22;4.72;;;23.30;79.30;;;;;;6016411;29;94229;-68
2023/05/30 06:09:21;;;;;;;5.47;4.90;;;23.30;79.40;;;;;;6018477;29;94140;-68
2023/05/30 06:12:23;;;;;;;5.20;4.70;;;23.30;79.40;;;;;;6019935;29;94118;-68
2023/05/30 06:15:25;;;;;;;5.70;5.18;;;23.30;79.60;;;;;;6022597;29;94162;-68
2023/05/30 06:18:28;;;;;;;5.53;4.88;;;23.30;79.50;;;;;;6014525;29;94153;-68
2023/05/30 06:21:30;;;;;;;5.40;4.90;;;23.30;79.40;;;;;;6008819;29;94489;-68
2023/05/30 06:24:32;;;;;;;5.53;4.90;;;23.30;79.50;;;;;;6010818;29;93419;-68
2023/05/30 06:27:34;;;;;;;5.93;5.32;;;23.30;79.40;;;;;;6001612;29;94338;-68
2023/05/30 06:30:36;;;;;;;6.15;5.40;;;23.30;79.40;;;;;;6023520;29;94282;-68
2023/05/30 06:33:40;;;;;;;5.47;4.82;;;23.30;79.40;;;;;;6010197;29;95452;-68
2023/05/30 06:36:42;;;;;;;5.55;5.05;;;23.30;79.30;;;;;;6005793;29;94091;-68
2023/05/30 06:39:44;;;;;;;5.75;5.18;;;23.30;79.30;;;;;;6026828;29;94180;-68
2023/05/30 06:42:46;;;;;;;5.50;5.00;;;23.30;79.30;;;;;;6016097;29;94151;-68
2023/05/30 06:45:48;;;;;;;5.60;5.10;;;23.30;79.30;;;;;;6019441;29;94080;-68
2023/05/30 06:48:51;;;;;;;5.22;4.72;;;23.30;79.30;;;;;;6011033;29;93074;-68
2023/05/30 06:51:53;;;;;;;5.80;5.20;;;23.30;79.30;;;;;;5996651;29;94177;-68
2023/05/30 06:54:55;;;;;;;5.50;5.00;;;23.30;79.30;;;;;;5999165;29;93279;-68
2023/05/30 06:57:57;;;;;;;6.50;5.20;;;23.30;79.40;;;;;;6002278;29;94159;-68
2023/05/30 07:00:59;;;;;;;5.22;4.72;;;23.30;79.40;;;;;;6027814;29;94205;-68
2023/05/30 07:04:02;;;;;;;4.90;4.40;;;23.30;79.40;;;;;;6017831;29;95097;-68
2023/05/30 07:07:05;;;;;;;5.65;4.95;;;23.40;79.40;;;;;;6009133;29;94208;-68
2023/05/30 07:10:08;;;;;;;5.85;5.03;;;23.40;79.40;;;;;;6018628;29;94115;-68
2023/05/30 07:13:10;;;;;;;6.63;5.22;;;23.40;79.40;;;;;;6011775;29;94134;-68
2023/05/30 07:16:13;;;;;;;5.25;4.75;;;23.40;79.40;;;;;;6025364;29;94479;-67
2023/05/30 07:19:16;;;;;;;6.32;5.30;;;23.40;79.30;;;;;;6013980;29;94376;-68
2023/05/30 07:22:18;;;;;;;5.85;5.10;;;23.40;79.30;;;;;;6019567;29;93542;-68
2023/05/30 07:25:20;;;;;;;5.50;4.90;;;23.40;79.30;;;;;;6014250;29;93394;-68
2023/05/30 07:28:22;;;;;;;4.90;4.50;;;23.40;79.30;;;;;;6004469;29;94371;-68
2023/05/30 07:31:24;;;;;;;6.57;4.75;;;23.40;79.30;;;;;;6022096;29;94230;-68
2023/05/30 07:34:28;;;;;;;5.20;4.70;;;23.40;79.30;;;;;;6021961;29;95188;-68
2023/05/30 07:37:30;;;;;;;5.38;4.85;;;23.40;79.30;;;;;;6024794;29;94074;-68
2023/05/30 07:40:32;;;;;;;5.07;4.57;;;23.40;79.30;;;;;;6014524;29;94168;-68
2023/05/30 07:43:34;;;;;;;4.93;4.43;;;23.40;79.40;;;;;;5999684;29;94238;-68
2023/05/30 07:46:36;;;;;;;4.82;4.32;;;23.40;79.40;;;;;;6013424;29;94131;-68
2023/05/30 07:49:39;;;;;;;5.38;4.78;;;23.40;79.40;;;;;;5993464;29;94128;-68
2023/05/30 07:52:41;;;;;;;5.80;4.68;;;23.40;79.40;;;;;;6009410;29;94233;-68
2023/05/30 07:55:43;;;;;;;5.50;5.00;;;23.40;79.40;;;;;;6018376;29;93373;-68
2023/05/30 07:58:46;;;;;;;5.00;4.50;;;23.40;79.60;;;;;;6022652;29;94130;-68
2023/05/30 08:01:48;;;;;;;6.45;4.88;;;23.40;79.60;;;;;;6034739;29;93128;-68
2023/05/30 08:04:51;;;;;;;5.53;4.70;;;23.40;79.70;;;;;;5998597;29;95073;-68
2023/05/30 08:07:53;;;;;;;4.63;4.18;;;23.40;79.80;;;;;;6001246;29;94148;-68
2023/05/30 08:10:55;;;;;;;5.53;4.25;;;23.40;79.80;;;;;;6016529;29;94097;-68
2023/05/30 08:13:57;;;;;;;4.90;4.43;;;23.40;79.80;;;;;;6019776;29;94484;-68
2023/05/30 08:16:59;;;;;;;5.07;4.10;;;23.40;79.80;;;;;;5999658;29;94092;-68
2023/05/30 08:20:04;;;;;;;4.80;4.38;;;23.40;79.80;;;;;;5994447;29;94496;-68
2023/05/30 08:23:06;;;;;;;4.78;4.28;;;23.40;79.80;;;;;;6000957;29;94422;-68
2023/05/30 08:26:08;;;;;;;6.22;4.43;;;23.40;79.80;;;;;;6003528;29;93558;-68
2023/05/30 08:29:11;;;;;;;5.25;4.25;;;23.40;79.80;;;;;;6000250;29;93189;-68
2023/05/30 08:32:13;;;;;;;5.00;4.50;;;23.50;80.00;;;;;;6012527;29;94412;-68
2023/05/30 08:35:16;;;;;;;5.13;4.32;;;23.40;79.90;;;;;;6022320;29;95097;-68
2023/05/30 08:38:18;;;;;;;4.68;4.28;;;23.40;79.90;;;;;;6006536;29;94173;-68
2023/05/30 08:41:20;;;;;;;5.20;4.70;;;23.40;79.90;;;;;;6010880;29;93164;-68
2023/05/30 08:44:23;;;;;;;4.90;4.40;;;23.40;79.80;;;;;;6010712;29;94071;-68
2023/05/30 08:47:25;;;;;;;5.10;4.60;;;23.40;79.90;;;;;;5999817;29;94284;-68
2023/05/30 08:50:30;;;;;;;4.38;3.92;;;23.40;80.00;;;;;;6020314;29;94094;-68
2023/05/30 08:53:37;;;;;;;4.40;4.00;;;23.40;80.00;;;;;;5996853;29;94106;-68
2023/05/30 08:56:45;;;;;;;4.75;4.35;;;23.40;80.00;;;;;;6006636;29;93536;-68
2023/05/30 08:59:50;;;;;;;4.80;3.95;;;23.40;80.10;;;;;;6011391;29;94304;-68
2023/05/30 09:02:55;;;;;;;4.43;4.00;;;23.40;80.00;;;;;;6011263;29;94501;-68
2023/05/30 09:06:00;;;;;;;5.13;4.20;;;23.40;80.00;;;;;;6009179;29;95056;-68
2023/05/30 09:09:03;;;;;;;5.47;4.47;;;23.50;80.10;;;;;;6008601;29;94165;-68
2023/05/30 09:12:07;;;;;;;4.40;4.00;;;23.50;80.10;;;;;;5994921;29;93477;-68
2023/05/30 09:15:10;;;;;;;4.93;4.30;;;23.50;80.10;;;;;;6006057;29;94381;-68
2023/05/30 09:18:12;;;;;;;4.30;3.90;;;23.40;80.00;;;;;;6012294;29;94173;-67
2023/05/30 09:21:16;;;;;;;5.13;4.28;;;23.40;80.00;;;;;;6029140;29;94229;-68
2023/05/30 09:24:18;;;;;;;4.65;4.15;;;23.40;80.10;;;;;;6022256;29;94071;-68
2023/05/30 09:27:21;;;;;;;5.55;4.35;;;23.40;80.10;;;;;;6017464;29;94528;-68
2023/05/30 09:30:23;;;;;;;4.32;3.92;;;23.40;80.10;;;;;;6008833;29;94127;-67
2023/05/30 09:33:40;;;;;;;4.63;3.90;;;23.50;80.10;;;;;;6029452;29;94122;-68
2023/05/30 09:36:54;;;;;;;4.60;3.67;;;23.50;80.20;;;;;;6022194;29;93997;-68
2023/05/30 09:40:08;;;;;;;5.30;3.80;;;23.40;80.20;;;;;;6004667;29;94250;-68
2023/05/30 09:43:10;;;;;;;4.45;4.05;;;23.50;80.30;;;;;;5995966;29;94235;-68
2023/05/30 09:46:12;;;;;;;5.25;4.13;;;23.50;80.40;;;;;;6020830;29;94169;-68
2023/05/30 09:49:14;;;;;;;4.80;4.00;;;23.40;80.30;;;;;;6025001;29;94172;-68
2023/05/30 09:52:17;;;;;;;4.63;4.10;;;23.40;80.30;;;;;;6016857;29;94152;-68
2023/05/30 09:55:20;;;;;;;4.43;3.95;;;23.50;80.40;;;;;;6008131;29;94078;-68
2023/05/30 09:58:23;;;;;;;4.30;3.90;;;23.40;81.20;;;;;;5995527;29;92400;-68
2023/05/30 10:01:26;;;;;;;4.55;4.13;;;23.50;80.50;;;;;;6015059;29;94217;-68
2023/05/30 10:04:29;;;;;;;4.03;3.63;;;23.40;80.30;;;;;;6014865;29;94691;-68
2023/05/30 10:07:33;;;;;;;4.43;4.03;;;23.50;80.30;;;;;;6019874;29;94981;-68
2023/05/30 10:10:36;;;;;;;4.30;3.90;;;23.50;80.30;;;;;;6021653;29;94377;-68
2023/05/30 10:13:39;;;;;;;4.35;3.95;;;23.50;80.30;;;;;;5998559;29;94102;-68
2023/05/30 10:16:47;;;;;;;4.05;3.67;;;23.40;80.30;;;;;;5998940;29;94122;-67
2023/05/30 10:19:52;;;;;;;4.28;3.88;;;23.50;80.30;;;;;;6014719;29;94424;-68
2023/05/30 10:22:57;;;;;;;4.03;3.60;;;23.50;80.30;;;;;;6017751;29;94432;-68
2023/05/30 10:26:01;;;;;;;3.75;3.45;;;23.40;80.30;;;;;;6004775;29;94044;-68
2023/05/30 10:29:07;;;;;;;4.00;3.60;;;23.50;80.30;;;;;;5998050;29;93479;-67
2023/05/30 10:32:12;;;;;;;5.25;4.03;;;23.40;80.30;;;;;;6004441;29;94176;-68
2023/05/30 10:35:15;;;;;;;4.20;3.78;;;23.40;80.30;;;;;;6025399;29;94051;-68
2023/05/30 10:38:20;;;;;;;5.13;3.78;;;23.50;80.50;;;;;;6003987;29;94215;-68
2023/05/30 10:41:30;;;;;;;4.20;3.60;;;23.50;80.50;;;;;;6007059;29;94414;-68
2023/05/30 10:44:41;;;;;;;3.97;3.58;;;23.50;80.50;;;;;;6014285;29;93413;-68
2023/05/30 10:47:52;;;;;;;4.10;3.75;;;23.50;80.60;;;;;;6021383;29;94341;-68
2023/05/30 10:50:59;;;;;;;4.28;3.83;;;23.50;80.60;;;;;;6003302;29;94159;-68
2023/05/30 10:54:03;;;;;;;4.00;3.58;;;23.50;80.60;;;;;;6015648;29;94212;-68
2023/05/30 10:57:23;;;;;;;3.80;3.50;;;23.40;80.50;;;;;;6014504;29;94155;-68
2023/05/30 11:00:30;;;;;;;4.03;3.63;;;23.50;80.60;;;;;;6004989;29;93607;-68
2023/05/30 11:03:36;;;;;;;3.63;3.30;;;23.50;80.60;;;;;;6010706;29;94136;-68
2023/05/30 11:06:42;;;;;;;4.18;3.60;;;23.50;80.50;;;;;;6000896;29;94170;-68
2023/05/30 11:10:04;;;;;;;4.07;3.40;;;23.50;80.50;;;;;;6019855;29;95408;-68
2023/05/30 11:13:10;;;;;;;4.38;3.80;;;23.50;80.50;;;;;;6012520;29;94208;-68
2023/05/30 11:16:22;;;;;;;4.35;3.95;;;23.50;80.50;;;;;;6001876;29;94466;-68
2023/05/30 11:19:26;;;;;;;4.43;3.85;;;23.50;80.60;;;;;;6006352;29;94097;-69
2023/05/30 11:22:28;;;;;;;4.53;3.88;;;23.50;80.50;;;;;;5994947;29;94452;-68
2023/05/30 11:25:33;;;;;;;3.60;3.30;;;23.50;80.60;;;;;;5991233;29;94173;-68
2023/05/30 11:28:36;;;;;;;4.15;3.58;;;23.50;80.50;;;;;;6003525;29;94150;-68
2023/05/30 11:31:39;;;;;;;4.20;3.78;;;23.40;80.50;;;;;;6000256;29;93398;-68
2023/05/30 11:34:42;;;;;;;3.80;3.50;;;23.40;80.50;;;;;;5993721;29;94244;-69
2023/05/30 11:37:46;;;;;;;4.50;3.67;;;23.50;80.60;;;;;;6004790;29;94334;-68
2023/05/30 11:40:50;;;;;;;4.05;3.63;;;23.50;80.50;;;;;;6013768;29;95163;-68
2023/05/30 11:43:53;;;;;;;3.60;3.30;;;23.50;80.50;;;;;;6019846;29;95999;-68
2023/05/30 11:46:59;;;;;;;4.32;3.92;;;23.50;80.50;;;;;;6024204;29;94058;-68
2023/05/30 11:50:01;;;;;;;4.05;3.53;;;23.50;80.60;;;;;;6010318;29;93341;-68
2023/05/30 11:53:03;;;;;;;3.88;3.47;;;23.50;80.50;;;;;;6003926;29;94532;-68
2023/05/30 11:56:08;;;;;;;3.58;3.25;;;23.50;80.50;;;;;;6001221;29;94276;-68
2023/05/30 11:59:11;;;;;;;3.58;3.20;;;23.50;80.50;;;;;;6005555;29;94153;-68
2023/05/30 12:02:13;;;;;;;3.47;3.17;;;23.50;80.50;;;;;;6011666;29;93403;-68
2023/05/30 12:05:15;;;;;;;3.60;3.30;;;23.50;80.60;;;;;;6010876;29;94025;-68
2023/05/30 12:08:18;;;;;;;4.22;3.63;;;23.50;80.60;;;;;;6006322;29;94185;-68
2023/05/30 12:11:21;;;;;;;3.40;3.10;;;23.50;80.60;;;;;;6012862;29;95108;-68
2023/05/30 12:14:38;;;;;;;3.40;3.10;;;23.50;80.60;;;;;;6001449;29;94156;-67
2023/05/30 12:17:41;;;;;;;4.55;3.67;;;23.50;80.60;;;;;;6012143;29;94148;-68
2023/05/30 12:20:44;;;;;;;4.00;3.60;;;23.60;80.60;;;;;;5999418;29;94313;-68
2023/05/30 12:23:46;;;;;;;3.60;3.30;;;23.50;80.60;;;;;;6002789;29;93098;-68
2023/05/30 12:26:50;;;;;;;3.65;3.35;;;23.50;80.60;;;;;;5990126;29;94088;-68
2023/05/30 12:29:52;;;;;;;3.85;3.50;;;23.50;80.70;;;;;;6001338;29;94198;-68
2023/05/30 12:32:56;;;;;;;3.50;3.20;;;23.50;80.60;;;;;;6010277;29;93785;-68
2023/05/30 12:35:58;;;;;;;3.67;3.38;;;23.50;80.60;;;;;;5993399;29;94438;-68
2023/05/30 12:39:00;;;;;;;3.78;3.30;;;23.50;80.60;;;;;;6006854;29;93953;-68
2023/05/30 12:42:08;;;;;;;3.50;3.20;;;23.50;80.60;;;;;;6013612;29;95108;-68
2023/05/30 12:45:12;;;;;;;3.65;3.35;;;23.50;80.60;;;;;;6010346;29;94155;-68
2023/05/30 12:48:14;;;;;;;3.88;3.47;;;23.50;80.60;;;;;;6010584;29;94663;-68
2023/05/30 12:51:16;;;;;;;3.95;3.42;;;23.50;80.60;;;;;;6014037;29;94197;-68
2023/05/30 12:54:18;;;;;;;4.22;3.38;;;23.50;80.60;;;;;;6024174;29;94078;-68
2023/05/30 12:57:24;;;;;;;4.05;3.30;;;23.50;80.60;;;;;;6014915;29;94174;-68
2023/05/30 13:00:27;;;;;;;3.63;3.10;;;23.60;80.60;;;;;;5989676;29;94067;-68
2023/05/30 13:03:29;;;;;;;3.10;2.80;;;23.50;80.90;;;;;;6006483;29;93446;-68
2023/05/30 13:06:31;;;;;;;3.35;3.05;;;23.50;80.90;;;;;;6011716;29;94129;-68
2023/05/30 13:09:34;;;;;;;3.60;3.30;;;23.50;80.80;;;;;;6010640;29;94671;-68
2023/05/30 13:12:37;;;;;;;4.30;3.28;;;23.50;81.00;;;;;;6001303;29;95352;-68
2023/05/30 13:15:39;;;;;;;3.47;3.17;;;23.50;81.70;;;;;;6009414;29;94638;-68
2023/05/30 13:18:41;;;;;;;3.35;3.05;;;23.50;80.70;;;;;;6012183;29;94154;-68
2023/05/30 13:21:44;;;;;;;4.07;3.13;;;23.60;80.80;;;;;;6020079;29;94424;-68
2023/05/30 13:24:46;;;;;;;4.20;3.47;;;23.50;80.60;;;;;;6011752;29;94077;-68
2023/05/30 13:27:50;;;;;;;4.32;3.60;;;23.50;80.60;;;;;;6006196;29;94661;-68
2023/05/30 13:30:52;;;;;;;3.33;3.03;;;23.50;80.50;;;;;;5995665;29;95194;-68
2023/05/30 13:33:56;;;;;;;3.92;3.47;;;23.60;80.50;;;;;;5999121;29;93355;-68
2023/05/30 13:36:58;;;;;;;3.80;3.40;;;23.50;80.50;;;;;;6008555;29;94105;-68
2023/05/30 13:40:00;;;;;;;3.83;3.30;;;23.50;80.50;;;;;;6014747;29;94172;-68
2023/05/30 13:43:03;;;;;;;4.07;3.38;;;23.50;80.50;;;;;;6004169;29;95227;-69
2023/05/30 13:46:05;;;;;;;3.83;3.22;;;23.50;80.70;;;;;;6020724;29;93816;-68
2023/05/30 13:49:07;;;;;;;5.20;3.40;;;23.50;80.60;;;;;;6032906;29;94205;-68
2023/05/30 13:52:09;;;;;;;3.35;3.05;;;23.50;80.80;;;;;;6020455;29;94021;-68
2023/05/30 13:55:11;;;;;;;3.40;3.10;;;23.50;80.90;;;;;;6014537;29;94103;-68
2023/05/30 13:58:15;;;;;;;3.50;3.20;;;23.60;81.00;;;;;;6023370;29;94110;-68
2023/05/30 14:01:17;;;;;;;4.10;3.33;;;23.60;82.00;;;;;;6007528;29;94217;-68
2023/05/30 14:04:19;;;;;;;4.60;3.47;;;23.50;81.00;;;;;;6010889;29;93353;-68
2023/05/30 14:07:22;;;;;;;3.70;3.40;;;23.60;81.20;;;;;;6005617;29;94268;-68
2023/05/30 14:10:23;;;;;;;3.67;3.17;;;23.60;81.20;;;;;;6019529;29;94318;-68
2023/05/30 14:13:27;;;;;;;3.65;3.35;;;23.50;81.10;;;;;;6020090;29;94988;-68
2023/05/30 14:16:31;;;;;;;3.67;3.20;;;23.50;81.10;;;;;;6003669;29;94086;-68
2023/05/30 14:19:34;;;;;;;3.60;3.30;;;23.50;81.00;;;;;;6017079;29;95474;-68
2023/05/30 14:22:36;;;;;;;3.80;3.38;;;23.60;80.90;;;;;;6024619;29;94477;-68
2023/05/30 14:25:38;;;;;;;4.60;3.88;;;23.60;80.90;;;;;;6002122;29;94058;-68
2023/05/30 14:28:43;;;;;;;3.47;3.17;;;23.50;80.90;;;;;;6002148;29;94132;-69
2023/05/30 14:31:45;;;;;;;3.70;3.40;;;23.50;81.10;;;;;;6004139;29;94056;-68
2023/05/30 14:34:47;;;;;;;3.83;3.15;;;23.60;81.10;;;;;;6006503;29;93446;-69
2023/05/30 14:37:50;;;;;;;3.22;2.92;;;23.50;81.00;;;;;;6009966;29;94072;-68
2023/05/30 14:40:52;;;;;;;4.47;3.70;;;23.60;81.10;;;;;;6021544;29;94294;-69
2023/05/30 14:43:56;;;;;;;3.90;3.53;;;23.50;81.10;;;;;;6012892;29;95055;-67
2023/05/30 14:46:58;;;;;;;3.70;3.40;;;23.60;81.10;;;;;;6025485;29;94302;-67
2023/05/30 14:50:00;;;;;;;4.18;3.30;;;23.50;81.10;;;;;;6014378;29;94107;-67
2023/05/30 14:53:02;;;;;;;4.75;3.40;;;23.50;81.10;;;;;;6007026;29;94165;-67
2023/05/30 14:56:05;;;;;;;3.50;3.13;;;23.60;81.20;;;;;;6004127;29;94321;-67
2023/05/30 14:59:08;;;;;;;3.83;3.38;;;23.60;81.20;;;;;;5997726;29;94493;-67
2023/05/30 15:02:10;;;;;;;3.75;3.35;;;23.60;81.20;;;;;;6008559;29;94286;-67
2023/05/30 15:05:12;;;;;;;4.57;3.78;;;23.50;81.10;;;;;;6006081;29;93423;-67
2023/05/30 15:08:14;;;;;;;4.32;3.42;;;23.60;81.00;;;;;;6018268;29;94449;-66
2023/05/30 15:11:16;;;;;;;3.72;3.40;;;23.60;81.50;;;;;;6015727;29;93025;-67
2023/05/30 15:14:19;;;;;;;4.78;3.58;;;23.50;82.00;;;;;;6024227;29;95090;-66
2023/05/30 15:17:22;;;;;;;4.25;3.40;;;23.50;82.20;;;;;;6013390;29;94137;-67
2023/05/30 15:20:24;;;;;;;3.55;3.25;;;23.50;82.00;;;;;;6023664;29;95737;-67
2023/05/30 15:23:26;;;;;;;3.90;3.50;;;23.60;81.80;;;;;;6014401;29;94114;-67
2023/05/30 15:26:28;;;;;;;3.78;3.28;;;23.60;81.60;;;;;;6005931;29;93356;-66
2023/05/30 15:29:33;;;;;;;3.90;3.50;;;23.50;81.60;;;;;;6016263;29;94146;-66
2023/05/30 15:32:37;;;;;;;4.10;3.53;;;23.60;81.60;;;;;;6014776;29;94245;-66
2023/05/30 15:35:39;;;;;;;3.67;3.38;;;23.60;81.50;;;;;;6012325;29;93366;-66
2023/05/30 15:38:41;;;;;;;4.07;3.67;;;23.60;81.50;;;;;;6006289;29;94076;-66
2023/05/30 15:41:45;;;;;;;3.60;3.30;;;23.60;81.50;;;;;;6004584;29;94223;-66
2023/05/30 15:44:49;;;;;;;5.25;3.58;;;23.60;81.50;;;;;;6008559;29;95509;-66
2023/05/30 15:47:52;;;;;;;3.88;3.47;;;23.60;81.50;;;;;;6012605;29;94101;-66
2023/05/30 15:50:54;;;;;;;3.83;3.45;;;23.60;81.50;;;;;;6012976;29;94417;-66
2023/05/30 15:53:56;;;;;;;4.05;3.65;;;23.50;81.50;;;;;;6016948;29;94446;-66
2023/05/30 15:56:58;;;;;;;4.70;3.67;;;23.60;81.50;;;;;;6010289;29;94111;-67